Arntfield, Canada
Current Conditions -  °F | °C
As of 4:00 PM on Wednesday 17 Dec 2014 (Local Time) from CYUY Reporting Station
Light Snow Light Snow  
Wind Chill:   Ceiling: 2200
Heat Index: 21°   Visibility: 2.5mi
Dew Point: 19°   Wind: 12mph
Humidity: 93%   Direction: 360°N
Pressure: 29.86"   Gusts: 18mph
Location:  48.2°N, 79.25°W
Report Text: CYUY 172100Z 36010G16KT 2 1/2SM -SN FEW012 OVC022 M06/M07 A2986 RMK SC1SC7 SLP132
Loading
Personal Weather Stations






























Interactive Weather Map New forecast layout! Learn more

10-Day Weather Forecast

Advertisements
Track Severe Weather on mobile